Time;durP1;ratioP1;P1;durP2;ratioP2;P2;SDS_P1;SDS_P2;PMS_P1;PMS_P2;Temp;Humidity;BMP_temperature;BMP_pressure;BME280_temperature;BME280_humidity;BME280_pressure;Samples;Min_cycle;Max_cycle;Signal;HPM_P1;HPM_P2
2021/09/02 00:04:57;;;;;;;8.45;3.70;;;12.50;99.90;;;;;;10323698;28;20488;-60
2021/09/02 00:09:59;;;;;;;8.25;4.10;;;12.40;99.90;;;;;;10326048;28;20042;-60
2021/09/02 00:15:00;;;;;;;6.90;3.83;;;12.40;99.90;;;;;;10324857;28;20133;-59
2021/09/02 00:20:04;;;;;;;9.77;4.22;;;12.50;99.90;;;;;;10323739;28;20050;-60
2021/09/02 00:25:07;;;;;;;8.02;4.15;;;12.40;99.90;;;;;;10326012;28;20139;-60
2021/09/02 00:30:09;;;;;;;10.80;4.60;;;12.50;99.90;;;;;;10326675;28;20535;-59
2021/09/02 00:35:11;;;;;;;8.70;4.22;;;12.50;99.90;;;;;;10324539;28;20500;-60
2021/09/02 00:40:13;;;;;;;10.73;4.93;;;12.50;99.90;;;;;;10328772;28;20104;-60
2021/09/02 00:45:14;;;;;;;10.05;4.32;;;12.40;99.90;;;;;;10325329;28;20484;-60
2021/09/02 00:50:16;;;;;;;8.25;3.92;;;12.40;99.90;;;;;;10328569;28;20373;-60
2021/09/02 00:55:18;;;;;;;9.93;4.78;;;12.40;99.90;;;;;;10328153;28;20078;-60
2021/09/02 01:00:19;;;;;;;9.48;4.65;;;12.30;99.90;;;;;;10331463;28;20116;-61
2021/09/02 01:05:22;;;;;;;8.40;4.32;;;12.30;99.90;;;;;;10333850;28;20046;-60
2021/09/02 01:10:24;;;;;;;9.40;4.53;;;12.20;99.90;;;;;;10328576;28;20645;-60
2021/09/02 01:15:27;;;;;;;12.77;5.20;;;12.20;99.90;;;;;;10335226;28;20116;-60
2021/09/02 01:20:31;;;;;;;6.72;4.10;;;12.20;99.90;;;;;;10335264;28;20136;-60
2021/09/02 01:25:42;;;;;;;8.85;4.63;;;12.20;99.90;;;;;;10334293;28;20073;-60
2021/09/02 01:30:44;;;;;;;11.25;4.50;;;12.10;99.90;;;;;;10331393;28;20053;-60
2021/09/02 01:35:46;;;;;;;10.35;4.90;;;12.10;99.90;;;;;;10330413;28;20074;-60
2021/09/02 01:40:48;;;;;;;7.45;4.00;;;12.10;99.90;;;;;;10334576;28;20120;-60
2021/09/02 01:45:49;;;;;;;9.60;4.72;;;12.10;99.90;;;;;;10331486;28;20073;-59
2021/09/02 01:50:51;;;;;;;9.27;4.95;;;12.10;99.90;;;;;;10329258;28;20038;-60
2021/09/02 01:55:53;;;;;;;10.18;4.95;;;12.10;99.90;;;;;;10334449;28;20089;-60
2021/09/02 02:00:55;;;;;;;15.02;5.88;;;12.10;99.90;;;;;;10326457;28;20124;-61
2021/09/02 02:05:57;;;;;;;12.98;5.07;;;11.90;99.90;;;;;;10335627;28;20568;-60
2021/09/02 02:10:59;;;;;;;9.77;4.15;;;11.80;99.90;;;;;;10328464;28;20070;-60
2021/09/02 02:16:01;;;;;;;14.00;4.97;;;11.80;99.90;;;;;;10327823;28;20092;-60
2021/09/02 02:21:02;;;;;;;14.57;5.68;;;11.80;99.90;;;;;;10330207;28;20085;-60
2021/09/02 02:26:04;;;;;;;13.68;4.85;;;11.80;99.90;;;;;;10331241;28;20054;-61
2021/09/02 02:31:06;;;;;;;12.77;5.55;;;11.80;99.90;;;;;;10329188;28;20120;-60
2021/09/02 02:36:07;;;;;;;13.65;6.45;;;11.70;99.90;;;;;;10319781;28;20053;-60
2021/09/02 02:41:09;;;;;;;9.35;5.25;;;11.70;99.90;;;;;;10327961;28;20131;-60
2021/09/02 02:46:11;;;;;;;9.60;5.57;;;11.60;99.90;;;;;;10328312;28;20123;-60
2021/09/02 02:51:13;;;;;;;9.60;5.45;;;11.70;99.90;;;;;;10331234;28;20041;-60
2021/09/02 02:56:15;;;;;;;8.75;5.00;;;11.60;99.90;;;;;;10326788;28;20081;-60
2021/09/02 03:01:17;;;;;;;10.95;5.38;;;11.60;99.90;;;;;;10328746;28;20116;-59
2021/09/02 03:06:19;;;;;;;16.05;5.95;;;11.60;99.90;;;;;;10327805;28;20050;-60
2021/09/02 03:11:21;;;;;;;13.55;5.22;;;11.60;99.90;;;;;;10332158;28;20069;-60
2021/09/02 03:16:23;;;;;;;11.05;6.40;;;11.60;99.90;;;;;;10329824;28;20389;-59
2021/09/02 03:21:24;;;;;;;9.13;5.60;;;11.50;99.90;;;;;;10327274;28;20141;-59
2021/09/02 03:26:26;;;;;;;14.38;6.07;;;11.40;99.90;;;;;;10310655;28;20074;-59
2021/09/02 03:31:28;;;;;;;16.20;6.32;;;11.30;99.90;;;;;;10311132;28;20050;-60
2021/09/02 03:36:29;;;;;;;11.25;5.20;;;11.30;99.90;;;;;;10322434;28;20077;-59
2021/09/02 03:41:31;;;;;;;10.88;5.75;;;11.30;99.90;;;;;;10334393;28;20104;-60
2021/09/02 03:46:33;;;;;;;12.25;6.05;;;11.20;99.90;;;;;;10329331;28;20077;-60
2021/09/02 03:51:34;;;;;;;10.43;5.97;;;11.20;99.90;;;;;;10326750;28;20077;-61
2021/09/02 03:56:36;;;;;;;12.25;6.38;;;11.10;99.90;;;;;;10326694;28;20078;-61
2021/09/02 04:01:38;;;;;;;15.90;5.68;;;11.00;99.90;;;;;;10325425;28;20113;-61
2021/09/02 04:06:40;;;;;;;12.15;6.13;;;10.90;99.90;;;;;;10329954;28;20447;-60
2021/09/02 04:11:41;;;;;;;13.15;5.75;;;10.90;99.90;;;;;;10325338;28;20074;-60
2021/09/02 04:16:43;;;;;;;12.40;6.32;;;10.90;99.90;;;;;;10325944;28;20519;-61
2021/09/02 04:21:45;;;;;;;9.55;5.50;;;10.90;99.90;;;;;;10326294;28;20124;-61
2021/09/02 04:26:46;;;;;;;11.32;5.60;;;10.90;99.90;;;;;;10325392;28;20120;-61
2021/09/02 04:31:48;;;;;;;13.98;5.70;;;10.90;99.90;;;;;;10329960;28;20078;-60
2021/09/02 04:36:50;;;;;;;17.73;6.78;;;10.90;99.90;;;;;;10325348;28;20108;-60
2021/09/02 04:41:52;;;;;;;14.02;6.95;;;10.90;99.90;;;;;;10322581;28;20456;-65
2021/09/02 04:46:53;;;;;;;14.18;6.40;;;10.90;99.90;;;;;;10325526;28;20132;-66
2021/09/02 04:51:55;;;;;;;20.10;8.30;;;10.90;99.90;;;;;;10325467;28;20048;-66
2021/09/02 04:56:57;;;;;;;19.60;8.50;;;10.90;99.90;;;;;;10321074;28;20080;-66
2021/09/02 05:01:58;;;;;;;11.93;6.70;;;10.80;99.90;;;;;;10325370;28;20096;-66
2021/09/02 05:07:00;;;;;;;12.30;5.50;;;10.90;99.90;;;;;;10321647;28;20058;-67
2021/09/02 05:12:03;;;;;;;11.38;5.68;;;10.90;99.90;;;;;;10325303;28;20058;-68
2021/09/02 05:17:04;;;;;;;14.93;6.28;;;10.90;99.90;;;;;;10321749;28;20065;-67
2021/09/02 05:22:06;;;;;;;18.50;5.72;;;11.00;99.90;;;;;;10318933;28;20072;-67
2021/09/02 05:27:08;;;;;;;13.00;5.00;;;11.10;99.90;;;;;;10323244;28;20054;-67
2021/09/02 05:32:10;;;;;;;13.30;5.63;;;11.10;99.90;;;;;;10324650;28;20455;-67
2021/09/02 05:37:11;;;;;;;11.70;5.70;;;11.20;99.90;;;;;;10320643;28;20050;-67
2021/09/02 05:42:13;;;;;;;12.93;6.55;;;11.30;99.90;;;;;;10326494;28;20135;-66
2021/09/02 05:47:15;;;;;;;15.90;7.82;;;11.40;99.90;;;;;;10331016;28;20062;-67
2021/09/02 05:52:16;;;;;;;11.70;5.63;;;11.60;99.90;;;;;;10333557;28;20078;-66
2021/09/02 05:57:18;;;;;;;13.98;5.45;;;11.60;99.90;;;;;;10330890;28;20453;-66
2021/09/02 06:02:20;;;;;;;14.43;6.10;;;11.90;99.90;;;;;;10330287;28;20100;-66
2021/09/02 06:07:21;;;;;;;12.85;5.75;;;12.00;99.90;;;;;;10333696;28;20103;-66
2021/09/02 06:12:23;;;;;;;15.55;5.85;;;12.20;99.90;;;;;;10335134;28;20461;-67
2021/09/02 06:17:25;;;;;;;11.63;5.43;;;12.20;99.90;;;;;;10334264;28;20455;-67
2021/09/02 06:22:26;;;;;;;10.55;5.35;;;12.40;99.90;;;;;;10332511;28;20136;-66
2021/09/02 06:27:28;;;;;;;15.48;6.95;;;12.60;99.90;;;;;;10329325;28;20062;-67
2021/09/02 06:32:30;;;;;;;11.52;6.68;;;12.70;99.90;;;;;;10330646;28;20218;-68
2021/09/02 06:37:32;;;;;;;13.25;6.95;;;12.90;99.90;;;;;;10322365;28;20050;-66
2021/09/02 06:42:34;;;;;;;13.40;6.32;;;13.00;99.90;;;;;;10335050;28;20115;-67
2021/09/02 06:47:38;;;;;;;13.65;6.28;;;13.20;99.90;;;;;;10332561;28;20491;-67
2021/09/02 06:52:42;;;;;;;12.80;6.05;;;13.40;99.90;;;;;;10325227;28;20499;-66
2021/09/02 06:57:43;;;;;;;15.50;6.90;;;13.60;99.90;;;;;;10329276;28;20056;-67
2021/09/02 07:02:45;;;;;;;13.80;6.15;;;13.80;99.90;;;;;;10327125;28;20534;-67
2021/09/02 07:07:47;;;;;;;13.10;7.15;;;14.00;99.90;;;;;;10330391;28;20046;-66
2021/09/02 07:13:08;;;;;;;15.85;6.40;;;14.20;99.90;;;;;;10330650;28;20050;-67
2021/09/02 07:18:10;;;;;;;12.35;6.10;;;14.50;99.90;;;;;;10326593;28;20050;-67
2021/09/02 07:23:12;;;;;;;13.75;6.32;;;14.70;99.90;;;;;;10329351;28;20062;-67
2021/09/02 07:28:13;;;;;;;10.20;5.10;;;15.00;99.90;;;;;;10329348;28;20073;-66
2021/09/02 07:33:15;;;;;;;13.98;5.65;;;15.10;99.90;;;;;;10326712;28;20045;-66
2021/09/02 07:38:17;;;;;;;12.25;5.20;;;15.30;99.90;;;;;;10322522;28;20054;-66
2021/09/02 07:43:18;;;;;;;12.88;4.70;;;15.50;99.90;;;;;;10322639;28;20042;-63
2021/09/02 07:48:20;;;;;;;7.18;4.22;;;15.60;99.90;;;;;;10329230;28;20062;-64
2021/09/02 07:53:22;;;;;;;10.82;5.45;;;15.80;99.90;;;;;;10325210;28;20129;-64
2021/09/02 07:58:23;;;;;;;8.90;3.97;;;16.00;99.90;;;;;;10325784;28;20084;-64
2021/09/02 08:03:25;;;;;;;7.30;4.18;;;16.20;99.90;;;;;;10329248;28;20086;-63
2021/09/02 08:08:27;;;;;;;5.60;3.58;;;16.30;99.90;;;;;;10325524;28;20050;-64
2021/09/02 08:13:29;;;;;;;11.45;5.07;;;16.40;99.90;;;;;;10326629;28;20093;-64
2021/09/02 08:18:31;;;;;;;13.23;5.05;;;16.50;99.90;;;;;;10331092;28;20053;-63
2021/09/02 08:23:32;;;;;;;11.68;5.30;;;16.70;99.90;;;;;;10317013;28;20058;-64
2021/09/02 08:28:34;;;;;;;11.75;4.30;;;16.80;99.90;;;;;;10327405;28;20108;-64
2021/09/02 08:33:36;;;;;;;7.68;4.25;;;17.10;99.90;;;;;;10324031;28;20073;-64
2021/09/02 08:38:40;;;;;;;10.95;4.10;;;17.20;99.90;;;;;;10327872;28;20147;-64
2021/09/02 08:43:44;;;;;;;8.05;4.30;;;17.30;99.90;;;;;;10325764;28;20077;-65
2021/09/02 08:49:06;;;;;;;7.07;3.85;;;17.50;99.90;;;;;;10320386;28;20119;-74
2021/09/02 08:54:09;;;;;;;10.20;3.70;;;17.60;99.90;;;;;;10329912;28;20481;-71
2021/09/02 08:59:10;;;;;;;6.75;4.18;;;17.90;99.90;;;;;;10324536;28;20050;-62
2021/09/02 09:04:14;;;;;;;8.23;3.97;;;18.00;99.90;;;;;;10320972;28;20105;-63
2021/09/02 09:09:17;;;;;;;10.68;4.22;;;18.10;99.90;;;;;;10325427;28;20050;-62
2021/09/02 09:14:28;;;;;;;10.48;4.15;;;18.30;99.90;;;;;;10322826;28;20070;-63
2021/09/02 09:19:51;;;;;;;12.30;4.88;;;18.50;99.90;;;;;;10331957;28;20050;-63
2021/09/02 09:24:56;;;;;;;9.27;4.80;;;18.50;99.90;;;;;;10333016;28;20104;-63
2021/09/02 09:30:11;;;;;;;13.23;4.82;;;18.80;99.90;;;;;;10333346;28;20064;-63
2021/09/02 09:35:19;;;;;;;8.93;4.35;;;19.00;99.90;;;;;;10332811;28;20100;-63
2021/09/02 09:40:23;;;;;;;7.53;4.07;;;19.20;99.90;;;;;;10330908;28;20759;-62
2021/09/02 09:45:45;;;;;;;10.82;4.65;;;19.40;99.90;;;;;;10334949;28;20089;-63
2021/09/02 09:51:14;;;;;;;10.00;4.60;;;19.50;99.90;;;;;;10327511;28;20141;-62
2021/09/02 09:56:20;;;;;;;7.50;4.13;;;19.70;99.90;;;;;;10330308;28;20081;-62
2021/09/02 10:01:21;;;;;;;8.23;4.47;;;19.90;99.90;;;;;;10330328;28;20082;-62
2021/09/02 10:06:24;;;;;;;10.05;5.18;;;20.00;99.90;;;;;;10334477;28;20049;-62
2021/09/02 10:11:26;;;;;;;8.52;3.90;;;20.20;99.90;;;;;;10334018;28;20054;-63
2021/09/02 10:16:28;;;;;;;13.93;5.25;;;20.30;99.90;;;;;;10329422;28;20074;-63
2021/09/02 10:21:30;;;;;;;12.95;4.85;;;20.60;99.90;;;;;;10334738;28;20058;-62
2021/09/02 10:26:34;;;;;;;9.45;3.70;;;20.80;99.90;;;;;;10332962;28;20050;-63
2021/09/02 10:31:35;;;;;;;7.80;3.65;;;21.00;99.90;;;;;;10329115;28;20090;-62
2021/09/02 10:36:39;;;;;;;8.18;3.95;;;21.30;99.90;;;;;;10332481;28;20116;-64
2021/09/02 10:41:40;;;;;;;5.78;3.72;;;21.50;99.90;;;;;;10328103;28;20045;-63
2021/09/02 10:46:45;;;;;;;8.15;3.15;;;21.70;99.90;;;;;;10326116;28;20495;-65
2021/09/02 10:51:50;;;;;;;8.35;3.60;;;22.10;99.90;;;;;;10321325;28;20152;-64
2021/09/02 10:56:58;;;;;;;8.07;3.55;;;22.40;99.90;;;;;;10328344;28;20122;-64
2021/09/02 11:01:59;;;;;;;7.10;3.28;;;22.90;99.10;;;;;;10333785;28;20112;-64
2021/09/02 11:07:01;;;;;;;6.95;3.40;;;23.10;97.40;;;;;;10324837;28;20424;-64
2021/09/02 11:12:08;;;;;;;5.30;2.55;;;22.90;97.90;;;;;;10330555;28;20069;-64
2021/09/02 11:17:10;;;;;;;4.57;2.90;;;22.90;96.90;;;;;;10328498;28;20049;-65
2021/09/02 11:22:13;;;;;;;8.07;3.95;;;22.90;97.40;;;;;;10321371;28;20046;-65
2021/09/02 11:27:34;;;;;;;7.68;3.13;;;23.10;95.50;;;;;;10326689;28;20081;-65
2021/09/02 11:32:36;;;;;;;5.20;3.15;;;22.90;95.90;;;;;;10328743;28;20132;-65
2021/09/02 11:37:40;;;;;;;5.93;3.05;;;22.70;95.20;;;;;;10336473;28;20070;-65
2021/09/02 11:42:42;;;;;;;5.93;3.20;;;23.10;94.50;;;;;;10327622;28;20054;-64
2021/09/02 11:47:46;;;;;;;4.32;2.53;;;23.10;94.50;;;;;;10315558;28;20054;-63
2021/09/02 11:52:52;;;;;;;6.28;2.83;;;22.80;92.00;;;;;;10325212;28;20034;-63
2021/09/02 11:57:56;;;;;;;5.47;2.28;;;23.30;93.60;;;;;;10322867;28;20699;-64
2021/09/02 12:03:00;;;;;;;3.80;1.92;;;23.90;91.50;;;;;;10315454;28;20789;-64
2021/09/02 12:08:05;;;;;;;5.13;2.78;;;24.40;90.20;;;;;;10326846;28;20078;-71
2021/09/02 12:13:23;;;;;;;5.40;2.13;;;24.80;89.40;;;;;;10311060;28;20448;-70
2021/09/02 12:18:28;;;;;;;7.75;2.17;;;25.10;89.00;;;;;;10325016;28;20046;-72
2021/09/02 12:23:30;;;;;;;5.18;2.20;;;24.80;87.20;;;;;;10323124;28;20058;-70
2021/09/02 12:28:38;;;;;;;5.45;2.50;;;24.90;85.90;;;;;;10330231;28;20061;-69
2021/09/02 12:34:09;;;;;;;4.63;2.10;;;25.30;85.30;;;;;;10326671;28;20081;-68
2021/09/02 12:39:12;;;;;;;3.47;2.20;;;25.60;83.00;;;;;;10312352;28;20108;-68
2021/09/02 12:44:38;;;;;;;5.57;1.90;;;25.20;82.40;;;;;;10320884;28;20189;-68
2021/09/02 12:49:44;;;;;;;3.92;2.20;;;25.00;82.50;;;;;;10328252;28;20081;-69
2021/09/02 12:55:18;;;;;;;3.78;2.75;;;24.70;82.70;;;;;;10337635;28;20535;-69
2021/09/02 13:00:34;;;;;;;3.80;2.13;;;25.10;82.10;;;;;;10334517;28;20538;-71
2021/09/02 13:05:38;;;;;;;4.70;2.00;;;25.10;81.40;;;;;;10333581;28;20042;-70
2021/09/02 13:10:42;;;;;;;5.90;2.60;;;24.60;82.20;;;;;;10333777;28;20575;-69
2021/09/02 13:15:44;;;;;;;5.10;2.50;;;24.20;83.60;;;;;;10335401;28;20768;-70
2021/09/02 13:20:45;;;;;;;6.72;2.30;;;24.70;83.50;;;;;;10321849;28;20100;-70
2021/09/02 13:25:50;;;;;;;6.85;2.17;;;24.80;81.00;;;;;;10341864;28;20050;-70
2021/09/02 13:30:52;;;;;;;7.15;2.30;;;25.50;78.40;;;;;;10338143;28;20050;-70
2021/09/02 13:35:53;;;;;;;3.88;1.90;;;25.40;79.60;;;;;;10338724;28;20082;-71
2021/09/02 13:40:55;;;;;;;3.17;1.88;;;26.20;76.40;;;;;;10342446;28;20069;-71
2021/09/02 13:45:58;;;;;;;6.40;1.73;;;26.40;75.20;;;;;;10336836;28;20529;-70
2021/09/02 13:51:01;;;;;;;3.80;2.47;;;26.70;73.40;;;;;;10341317;28;20046;-71
2021/09/02 13:56:03;;;;;;;6.32;2.33;;;26.40;71.00;;;;;;10327612;28;20878;-71
2021/09/02 14:01:09;;;;;;;4.47;1.98;;;27.10;73.20;;;;;;10339548;28;20057;-70
2021/09/02 14:06:11;;;;;;;2.17;1.50;;;27.30;70.50;;;;;;10334329;28;20046;-70
2021/09/02 14:11:15;;;;;;;2.97;1.52;;;26.90;68.80;;;;;;10325978;28;20074;-69
2021/09/02 14:16:16;;;;;;;4.60;1.83;;;26.40;71.70;;;;;;10331269;28;20054;-69
2021/09/02 14:21:18;;;;;;;5.22;1.80;;;27.30;70.70;;;;;;10338788;28;20057;-69
2021/09/02 14:26:20;;;;;;;4.13;1.60;;;28.20;69.50;;;;;;10330822;28;20092;-70
2021/09/02 14:31:22;;;;;;;4.25;1.63;;;28.00;68.60;;;;;;10313380;28;20135;-67
2021/09/02 14:36:24;;;;;;;2.92;1.55;;;28.80;67.20;;;;;;10326479;28;20104;-67
2021/09/02 14:41:25;;;;;;;4.97;1.60;;;29.10;66.80;;;;;;10329708;28;20077;-66
2021/09/02 14:46:27;;;;;;;3.50;1.55;;;29.00;66.20;;;;;;10328081;28;20124;-68
2021/09/02 14:51:46;;;;;;;4.05;1.63;;;28.90;64.20;;;;;;10314155;28;20105;-67
2021/09/02 14:56:48;;;;;;;1.83;1.30;;;29.20;64.40;;;;;;10329914;28;20122;-68
2021/09/02 15:01:49;;;;;;;3.42;1.33;;;29.20;64.60;;;;;;10312699;28;20050;-68
2021/09/02 15:06:51;;;;;;;6.88;1.70;;;28.80;64.70;;;;;;10315379;28;20053;-66
2021/09/02 15:11:53;;;;;;;3.28;1.85;;;29.00;63.60;;;;;;10328985;28;20049;-71
2021/09/02 15:16:55;;;;;;;2.50;1.83;;;28.70;63.80;;;;;;10310372;28;20050;-72
2021/09/02 15:21:56;;;;;;;3.55;1.42;;;28.60;65.10;;;;;;10327846;28;20058;-65
2021/09/02 15:26:58;;;;;;;5.50;1.88;;;28.10;65.10;;;;;;10330264;28;20117;-65
2021/09/02 15:32:00;;;;;;;4.50;1.45;;;27.60;65.20;;;;;;10330454;28;20038;-69
2021/09/02 15:37:01;;;;;;;3.15;1.90;;;27.30;66.40;;;;;;10335169;28;20054;-69
2021/09/02 15:42:04;;;;;;;3.00;2.00;;;26.80;68.90;;;;;;10333586;28;20107;-66
2021/09/02 15:47:05;;;;;;;3.00;1.63;;;26.70;68.70;;;;;;10325267;28;20058;-69
2021/09/02 15:52:07;;;;;;;3.55;1.42;;;26.60;69.50;;;;;;10327413;28;20522;-69
2021/09/02 15:57:09;;;;;;;2.83;1.88;;;26.40;69.70;;;;;;10326250;28;20104;-69
2021/09/02 16:02:10;;;;;;;2.10;1.90;;;26.20;69.50;;;;;;10326260;28;20156;-69
2021/09/02 16:07:12;;;;;;;5.03;1.85;;;26.00;69.90;;;;;;10323825;28;20420;-69
2021/09/02 16:12:14;;;;;;;3.30;1.80;;;25.70;72.40;;;;;;10322835;28;20074;-69
2021/09/02 16:17:16;;;;;;;2.70;2.15;;;25.80;72.00;;;;;;10312360;28;20523;-69
2021/09/02 16:22:17;;;;;;;2.80;1.63;;;25.70;71.20;;;;;;10324728;28;20057;-69
2021/09/02 16:27:19;;;;;;;3.10;2.03;;;25.40;72.10;;;;;;10324235;28;20112;-69
2021/09/02 16:32:21;;;;;;;3.90;2.25;;;25.30;71.30;;;;;;10328527;28;20078;-69
2021/09/02 16:37:23;;;;;;;3.38;1.80;;;25.10;72.20;;;;;;10308347;28;20148;-69
2021/09/02 16:42:24;;;;;;;4.10;2.47;;;24.80;70.70;;;;;;10328210;28;21616;-69
2021/09/02 16:47:26;;;;;;;3.45;2.50;;;24.70;73.20;;;;;;10324204;28;20155;-66
2021/09/02 16:52:28;;;;;;;5.07;2.38;;;24.60;73.40;;;;;;10327094;28;20046;-68
2021/09/02 16:57:29;;;;;;;4.03;2.22;;;24.50;74.10;;;;;;10329058;28;20108;-69
2021/09/02 17:02:31;;;;;;;2.97;2.13;;;24.20;74.30;;;;;;10328440;28;20700;-67
2021/09/02 17:07:35;;;;;;;4.15;2.78;;;24.10;75.30;;;;;;10323271;28;20374;-65
2021/09/02 17:12:38;;;;;;;6.75;3.85;;;23.90;77.50;;;;;;10310070;28;20046;-64
2021/09/02 17:17:41;;;;;;;13.82;7.30;;;23.60;77.00;;;;;;10324404;28;20389;-64
2021/09/02 17:22:42;;;;;;;4.90;3.20;;;23.40;77.40;;;;;;10326451;28;20054;-66
2021/09/02 17:27:45;;;;;;;6.25;3.67;;;23.10;78.50;;;;;;10323575;28;20080;-64
2021/09/02 17:32:47;;;;;;;5.30;3.33;;;22.80;80.80;;;;;;10331181;28;20077;-65
2021/09/02 17:37:48;;;;;;;4.32;2.88;;;22.60;80.90;;;;;;10330700;28;20124;-64
2021/09/02 17:42:50;;;;;;;5.95;4.50;;;22.40;82.00;;;;;;10333449;28;20108;-65
2021/09/02 17:47:52;;;;;;;29.83;19.25;;;22.20;83.00;;;;;;10338279;28;20054;-65
2021/09/02 17:52:53;;;;;;;14.45;9.70;;;22.00;83.70;;;;;;10313649;28;20535;-65
2021/09/02 17:57:55;;;;;;;19.60;15.15;;;21.70;86.50;;;;;;10321711;28;20046;-64
2021/09/02 18:02:57;;;;;;;14.98;10.35;;;21.50;88.80;;;;;;10327243;28;20546;-65
2021/09/02 18:07:58;;;;;;;20.17;8.98;;;21.20;89.40;;;;;;10325705;28;20061;-66
2021/09/02 18:13:00;;;;;;;15.50;9.27;;;21.00;90.10;;;;;;10331884;28;20112;-66
2021/09/02 18:18:02;;;;;;;19.55;10.70;;;20.80;91.00;;;;;;10330590;28;20457;-66
2021/09/02 18:23:04;;;;;;;18.88;10.63;;;20.60;91.10;;;;;;10332925;28;20047;-65
2021/09/02 18:28:06;;;;;;;13.63;6.45;;;20.40;92.30;;;;;;10327479;28;20512;-65
2021/09/02 18:33:07;;;;;;;8.38;5.00;;;20.10;92.40;;;;;;10323893;28;20614;-60
2021/09/02 18:38:09;;;;;;;11.95;6.63;;;19.90;92.80;;;;;;10330391;28;20485;-60
2021/09/02 18:43:14;;;;;;;8.25;4.18;;;19.70;93.20;;;;;;10328644;28;20054;-59
2021/09/02 18:48:17;;;;;;;10.65;3.78;;;19.50;93.70;;;;;;10328192;28;20532;-59
2021/09/02 18:53:19;;;;;;;8.73;4.72;;;19.40;94.50;;;;;;10313599;28;20536;-59
2021/09/02 18:58:22;;;;;;;3.90;2.97;;;19.20;95.00;;;;;;10327794;28;20112;-61
2021/09/02 19:03:28;;;;;;;5.45;3.00;;;18.90;95.70;;;;;;10327820;28;20049;-60
2021/09/02 19:08:30;;;;;;;7.87;3.30;;;18.70;96.30;;;;;;10335686;28;20133;-60
2021/09/02 19:13:32;;;;;;;10.45;3.03;;;18.50;97.20;;;;;;10330112;28;20047;-61
2021/09/02 19:18:35;;;;;;;4.43;3.10;;;18.40;98.30;;;;;;10334087;28;20436;-61
2021/09/02 19:23:36;;;;;;;6.30;3.35;;;18.20;99.00;;;;;;10333743;28;20573;-62
2021/09/02 19:28:41;;;;;;;4.75;2.72;;;18.00;99.90;;;;;;10328890;28;20499;-60
2021/09/02 19:33:45;;;;;;;7.00;2.63;;;17.90;99.90;;;;;;10327826;28;20066;-61
2021/09/02 19:38:49;;;;;;;5.28;2.80;;;17.70;99.90;;;;;;10332238;28;20124;-60
2021/09/02 19:43:52;;;;;;;3.92;2.85;;;17.60;99.90;;;;;;10331515;28;20085;-60
2021/09/02 19:48:55;;;;;;;4.47;3.45;;;17.50;99.90;;;;;;10328024;28;20054;-60
2021/09/02 19:54:15;;;;;;;7.53;3.67;;;17.40;99.90;;;;;;10328769;28;20406;-59
2021/09/02 19:59:19;;;;;;;4.07;2.50;;;17.30;99.90;;;;;;10326407;28;20050;-59
2021/09/02 20:04:33;;;;;;;5.30;3.15;;;17.10;99.90;;;;;;10325874;28;20093;-59
2021/09/02 20:09:38;;;;;;;13.55;4.20;;;17.10;99.90;;;;;;10326866;28;20109;-60
2021/09/02 20:14:42;;;;;;;8.07;3.90;;;17.00;99.90;;;;;;10324619;28;20041;-60
2021/09/02 20:19:45;;;;;;;10.20;3.90;;;16.90;99.90;;;;;;10323025;28;20042;-59
2021/09/02 20:24:47;;;;;;;6.30;3.50;;;16.80;99.90;;;;;;10328829;28;20081;-60
2021/09/02 20:29:49;;;;;;;14.00;4.13;;;16.70;99.90;;;;;;10330437;28;20080;-60
2021/09/02 20:34:51;;;;;;;6.20;3.20;;;16.60;99.90;;;;;;10307785;28;20088;-60
2021/09/02 20:40:06;;;;;;;5.78;3.47;;;16.50;99.90;;;;;;10325564;28;20564;-60
2021/09/02 20:45:14;;;;;;;5.85;3.33;;;16.40;99.90;;;;;;10325616;28;20505;-60
2021/09/02 20:50:20;;;;;;;6.93;3.80;;;16.30;99.90;;;;;;10326896;28;20046;-60
2021/09/02 20:55:21;;;;;;;6.05;4.10;;;16.20;99.90;;;;;;10325168;28;20047;-60
2021/09/02 21:00:23;;;;;;;10.63;4.00;;;16.10;99.90;;;;;;10322299;28;20062;-60
2021/09/02 21:05:27;;;;;;;6.57;3.78;;;16.00;99.90;;;;;;10327527;28;20069;-59
2021/09/02 21:10:29;;;;;;;17.10;5.05;;;16.00;99.90;;;;;;10312448;28;20047;-60
2021/09/02 21:15:31;;;;;;;7.45;4.68;;;15.80;99.90;;;;;;10335320;28;20077;-59
2021/09/02 21:20:33;;;;;;;8.35;4.35;;;15.70;99.90;;;;;;10332942;28;20400;-59
2021/09/02 21:25:39;;;;;;;5.75;3.83;;;15.60;99.90;;;;;;10333227;28;20141;-59
2021/09/02 21:31:03;;;;;;;8.60;3.23;;;15.50;99.90;;;;;;10332744;28;20061;-60
2021/09/02 21:36:07;;;;;;;8.77;4.03;;;15.40;99.90;;;;;;10327529;28;20048;-59
2021/09/02 21:41:13;;;;;;;7.75;4.10;;;15.30;99.90;;;;;;10333184;28;20109;-60
2021/09/02 21:46:18;;;;;;;13.20;4.70;;;15.20;99.90;;;;;;10329186;28;20065;-59
2021/09/02 21:51:21;;;;;;;6.00;4.20;;;15.20;99.90;;;;;;10335994;28;20061;-60
2021/09/02 21:56:26;;;;;;;5.88;3.70;;;15.10;99.90;;;;;;10328523;28;20132;-59
2021/09/02 22:01:28;;;;;;;7.93;4.07;;;15.00;99.90;;;;;;10329524;28;20082;-59
2021/09/02 22:06:30;;;;;;;7.35;4.18;;;15.00;99.90;;;;;;10338108;28;20054;-59
2021/09/02 22:11:45;;;;;;;10.38;3.95;;;15.00;99.90;;;;;;10316500;28;20054;-59
2021/09/02 22:16:56;;;;;;;6.68;3.97;;;14.90;99.90;;;;;;10332736;28;20069;-59
2021/09/02 22:22:00;;;;;;;10.60;4.40;;;14.90;99.90;;;;;;10331687;28;20069;-60
2021/09/02 22:27:03;;;;;;;13.88;6.55;;;14.90;99.90;;;;;;10328620;28;20084;-60
2021/09/02 22:32:06;;;;;;;12.95;6.53;;;14.90;99.90;;;;;;10333090;28;20107;-59
2021/09/02 22:37:08;;;;;;;8.90;5.22;;;14.80;99.90;;;;;;10327093;28;20116;-59
2021/09/02 22:42:11;;;;;;;7.00;4.35;;;14.80;99.90;;;;;;10331229;28;20080;-59
2021/09/02 22:47:13;;;;;;;5.00;3.70;;;14.70;99.90;;;;;;10330673;28;20081;-59
2021/09/02 22:52:15;;;;;;;7.32;4.25;;;14.70;99.90;;;;;;10326867;28;20108;-59
2021/09/02 22:57:17;;;;;;;8.32;4.60;;;14.60;99.90;;;;;;10326097;28;20154;-60
2021/09/02 23:02:19;;;;;;;9.93;4.75;;;14.50;99.90;;;;;;10321509;28;20137;-59
2021/09/02 23:07:44;;;;;;;8.40;3.67;;;14.40;99.90;;;;;;10327164;28;20046;-59
2021/09/02 23:12:50;;;;;;;8.48;3.92;;;14.40;99.90;;;;;;10325004;28;20049;-59
2021/09/02 23:17:59;;;;;;;13.23;5.05;;;14.30;99.90;;;;;;10327162;28;20524;-59
2021/09/02 23:23:02;;;;;;;13.60;4.63;;;14.30;99.90;;;;;;10324720;28;20694;-59
2021/09/02 23:28:06;;;;;;;7.93;4.40;;;14.20;99.90;;;;;;10326679;28;25679;-59
2021/09/02 23:33:10;;;;;;;11.05;4.88;;;14.10;99.90;;;;;;10312613;28;20057;-59
2021/09/02 23:38:12;;;;;;;7.60;4.57;;;14.10;99.90;;;;;;10326768;28;20133;-59
2021/09/02 23:43:17;;;;;;;8.13;4.50;;;14.10;99.90;;;;;;10329885;28;20074;-59
2021/09/02 23:48:20;;;;;;;6.63;4.78;;;13.90;99.90;;;;;;10327350;28;20129;-60
2021/09/02 23:53:24;;;;;;;10.13;5.18;;;13.80;99.90;;;;;;10325228;28;20078;-59
2021/09/02 23:58:25;;;;;;;8.90;4.93;;;13.80;99.90;;;;;;10328555;28;20132;-59
